Minot International Airport Minot US
ICAO: KMOT
IATA: MOT
Category: Medium
Scheduled Services: Yes

Elevation: 1716 ft
TransAlt. 18000 ft.

Airport Communications:
APP:119.6
CTAF:118.2
DEP:119.6
GND:121.9
GRAND FORKS RDO:122.2
MAGIC CITY TWR:118.2
UNICOM:122.95

KMOT Zoom In..

If you have problems with the map follow the link
https://www.worldairports.se/pages/airport.php?
ICAO=KMOT

Runways:

(A) RW 08 length 6351 ft width 100 ft
---- / hdg 80

(B) RW 13 length 7700 ft width 150 ft
---- / hdg 128

(C) RW 26 length 6351 ft width 100 ft
---- / hdg 260

(D) RW 31 length 7700 ft width 150 ft
ILS 111.90 / hdg 308

Location; KMOT
Day. 18 / Time. 01.54 Zulu
* Altimeter: 30.34
* Temperature: -16° c. -3.2°f.
* Wind from: 310° Speed 08 kn.
Dewpoint: -18° c.
Visibility: 10 Statute Miles.
Clouds: Overcast 1000 ft.

KMOT 180154Z 31008KT 10SM OVC100 M16/M18 A3034 RMK AO2 SLP321 T11561183


Wind From 310°
Speed 08 kn.

 
 
jpsmedia.com for Web Design worldairports.se 2019   terms of use